createdAt,value
2022-09-15T00:01:31.281Z,97.30
2022-09-15T00:03:58.013Z,96.20
2022-09-15T00:06:24.659Z,96.07
2022-09-15T00:08:51.214Z,95.88
2022-09-15T00:11:20.034Z,95.86
2022-09-15T00:13:48.618Z,95.69
2022-09-15T00:16:16.896Z,95.26
2022-09-15T00:18:44.946Z,95.51
2022-09-15T00:21:13.594Z,95.48
2022-09-15T00:23:40.455Z,95.20
2022-09-15T00:26:08.901Z,94.99
2022-09-15T00:28:35.673Z,95.05
2022-09-15T00:31:07.037Z,95.03
2022-09-15T00:33:33.906Z,95.11
2022-09-15T00:36:03.242Z,95.37
2022-09-15T00:38:32.395Z,95.37
2022-09-15T00:41:00.513Z,95.06
2022-09-15T00:43:45.417Z,94.80
2022-09-15T00:46:14.651Z,94.89
2022-09-15T00:48:45.371Z,94.69
2022-09-15T00:51:16.490Z,94.69
2022-09-15T00:53:46.084Z,94.31
2022-09-15T00:56:15.923Z,94.40
2022-09-15T00:58:52.305Z,94.29
2022-09-15T01:01:20.328Z,94.27
2022-09-15T01:03:46.950Z,93.96
2022-09-15T01:06:18.129Z,93.95
2022-09-15T01:08:51.413Z,94.21
2022-09-15T01:11:18.518Z,94.26
2022-09-15T01:13:45.426Z,94.06
2022-09-15T01:16:19.056Z,93.97
2022-09-15T01:19:01.193Z,93.98
2022-09-15T01:21:36.450Z,94.10
2022-09-15T01:24:42.361Z,93.61
2022-09-15T01:27:38.100Z,94.08
2022-09-15T01:30:08.726Z,93.90
2022-09-15T01:32:49.983Z,93.62
2022-09-15T01:35:30.291Z,93.41
2022-09-15T01:38:03.266Z,93.68
2022-09-15T01:40:35.363Z,93.36
2022-09-15T01:43:05.352Z,93.40
2022-09-15T01:45:35.111Z,93.20
2022-09-15T01:48:06.531Z,93.28
2022-09-15T01:50:37.081Z,93.40
2022-09-15T01:53:09.986Z,93.65
2022-09-15T01:55:41.408Z,93.90
2022-09-15T01:58:08.273Z,93.36
2022-09-15T02:00:41.469Z,93.54
2022-09-15T02:03:16.490Z,93.67
2022-09-15T02:05:48.438Z,93.78
2022-09-15T02:08:20.869Z,93.70
2022-09-15T02:10:57.331Z,93.68
2022-09-15T02:13:31.618Z,93.63
2022-09-15T02:16:00.378Z,93.36
2022-09-15T02:18:34.886Z,93.63
2022-09-15T02:21:07.878Z,93.51
2022-09-15T02:23:39.928Z,93.46
2022-09-15T02:26:11.071Z,93.95
2022-09-15T02:28:39.345Z,94.02
2022-09-15T02:31:10.565Z,93.66
2022-09-15T02:33:41.035Z,93.24
2022-09-15T02:36:11.427Z,93.22
2022-09-15T02:38:43.691Z,93.32
2022-09-15T02:41:10.394Z,93.07
2022-09-15T02:43:44.547Z,93.10
2022-09-15T02:46:12.588Z,94.14
2022-09-15T02:48:39.340Z,93.98
2022-09-15T02:51:06.213Z,94.37
2022-09-15T02:53:32.958Z,94.37
2022-09-15T02:55:59.643Z,94.51
2022-09-15T02:58:26.287Z,94.25
2022-09-15T03:00:52.903Z,94.43
2022-09-15T03:03:20.873Z,94.76
2022-09-15T03:05:47.718Z,94.64
2022-09-15T03:08:14.220Z,95.08
2022-09-15T03:10:40.764Z,94.74
2022-09-15T03:13:07.299Z,96.12
2022-09-15T03:15:33.891Z,96.02
2022-09-15T03:18:01.574Z,95.98
2022-09-15T03:20:29.513Z,96.23
2022-09-15T03:22:56.022Z,96.42
2022-09-15T03:25:22.797Z,96.26
2022-09-15T03:27:49.337Z,96.29
2022-09-15T03:30:15.929Z,96.56
2022-09-15T03:32:42.445Z,96.86
2022-09-15T03:35:09.774Z,96.93
2022-09-15T03:37:37.663Z,96.38
2022-09-15T03:40:05.186Z,96.57
2022-09-15T03:42:31.828Z,96.13
2022-09-15T03:44:58.439Z,96.10
2022-09-15T03:47:24.967Z,96.10
2022-09-15T03:49:51.703Z,96.22
2022-09-15T03:52:18.210Z,95.76
2022-09-15T03:54:48.338Z,95.67
2022-09-15T03:57:14.876Z,95.47
2022-09-15T03:59:41.411Z,95.49
2022-09-15T04:02:08.486Z,95.24
2022-09-15T04:04:35.545Z,95.01
2022-09-15T04:07:02.653Z,94.90
2022-09-15T04:09:29.414Z,94.51
2022-09-15T04:11:57.833Z,94.40
2022-09-15T04:14:24.477Z,94.20
2022-09-15T04:16:51.150Z,94.19
2022-09-15T04:19:17.916Z,94.22
2022-09-15T04:21:44.427Z,94.27
2022-09-15T04:24:10.963Z,94.06
2022-09-15T04:26:38.001Z,94.03
2022-09-15T04:29:12.441Z,94.14
2022-09-15T04:31:39.120Z,93.88
2022-09-15T04:34:08.258Z,93.67
2022-09-15T04:36:35.095Z,93.74
2022-09-15T04:39:01.724Z,93.95
2022-09-15T04:41:28.804Z,93.80
2022-09-15T04:43:55.511Z,94.10
2022-09-15T04:46:23.511Z,94.20
2022-09-15T04:48:50.059Z,94.27
2022-09-15T04:51:19.531Z,94.76
2022-09-15T04:53:46.736Z,95.46
2022-09-15T04:56:15.451Z,95.40
2022-09-15T04:58:43.723Z,95.44
2022-09-15T05:01:12.781Z,95.63
2022-09-15T05:03:41.127Z,95.76
2022-09-15T05:06:10.010Z,96.05
2022-09-15T05:08:37.309Z,95.91
2022-09-15T05:11:06.106Z,95.94
2022-09-15T05:13:33.766Z,95.80
2022-09-15T05:16:04.370Z,95.86
2022-09-15T05:18:31.063Z,95.31
2022-09-15T05:21:00.074Z,95.61
2022-09-15T05:23:26.650Z,95.71
2022-09-15T05:25:56.696Z,96.49
2022-09-15T05:28:23.690Z,96.64
2022-09-15T05:30:50.334Z,96.60
2022-09-15T05:33:16.905Z,96.66
2022-09-15T05:35:50.546Z,96.78
2022-09-15T05:38:18.953Z,97.04
2022-09-15T05:40:45.525Z,97.01
2022-09-15T05:43:12.352Z,96.87
2022-09-15T05:45:39.234Z,96.93
2022-09-15T05:48:05.876Z,97.05
2022-09-15T05:50:32.460Z,97.15
2022-09-15T05:52:59.008Z,97.34
2022-09-15T05:55:27.199Z,97.35
2022-09-15T05:57:54.191Z,97.73
2022-09-15T06:00:21.148Z,97.51
2022-09-15T06:02:47.978Z,97.56
2022-09-15T06:05:14.750Z,97.74
2022-09-15T06:07:41.352Z,97.97
2022-09-15T06:10:09.265Z,98.18
2022-09-15T06:12:37.414Z,97.98
2022-09-15T06:15:04.451Z,97.94
2022-09-15T06:17:31.535Z,97.94
2022-09-15T06:19:58.354Z,97.86
2022-09-15T06:22:25.014Z,97.88
2022-09-15T06:24:51.563Z,97.50
2022-09-15T06:27:18.184Z,97.24
2022-09-15T06:29:46.077Z,96.96
2022-09-15T06:32:12.748Z,96.07
2022-09-15T06:34:39.338Z,95.58
2022-09-15T06:37:05.910Z,95.46
2022-09-15T06:39:32.448Z,94.82
2022-09-15T06:42:02.667Z,94.08
2022-09-15T06:44:29.784Z,93.84
2022-09-15T06:46:57.696Z,93.66
2022-09-15T06:49:24.401Z,93.40
2022-09-15T06:51:50.940Z,93.41
2022-09-15T06:54:17.761Z,93.33
2022-09-15T06:56:44.733Z,93.21
2022-09-15T06:59:11.843Z,93.50
2022-09-15T07:01:38.621Z,92.99
2022-09-15T07:04:08.114Z,92.67
2022-09-15T07:06:34.661Z,92.47
2022-09-15T07:09:01.214Z,91.93
2022-09-15T07:11:28.477Z,92.06
2022-09-15T07:13:55.138Z,89.96
2022-09-15T07:16:22.069Z,90.08
2022-09-15T07:18:49.108Z,89.49
2022-09-15T07:21:19.600Z,89.31
2022-09-15T07:23:46.847Z,89.10
2022-09-15T07:26:15.427Z,88.29
2022-09-15T07:28:43.994Z,88.22
2022-09-15T07:31:12.307Z,88.15
2022-09-15T07:33:38.857Z,87.81
2022-09-15T07:36:06.514Z,85.41
2022-09-15T07:38:35.535Z,86.29
2022-09-15T07:41:03.387Z,86.46
2022-09-15T07:43:29.880Z,85.93
2022-09-15T07:45:56.916Z,86.20
2022-09-15T07:48:26.467Z,85.54
2022-09-15T07:50:53.433Z,84.64
2022-09-15T07:53:20.178Z,84.02
2022-09-15T07:55:52.099Z,83.51
2022-09-15T07:58:18.743Z,83.59
2022-09-15T08:00:45.532Z,83.71
2022-09-15T08:03:12.130Z,83.33
2022-09-15T08:05:42.342Z,83.48
2022-09-15T08:08:11.425Z,83.05
2022-09-15T08:10:38.591Z,82.69
2022-09-15T08:13:06.616Z,82.91
2022-09-15T08:15:35.415Z,80.68
2022-09-15T08:18:02.211Z,81.07
2022-09-15T08:20:28.749Z,80.24
2022-09-15T08:22:55.420Z,79.84
2022-09-15T08:25:21.929Z,80.62
2022-09-15T08:27:48.507Z,79.23
2022-09-15T08:30:16.562Z,80.23
2022-09-15T08:32:43.227Z,79.84
2022-09-15T08:35:09.783Z,79.57
2022-09-15T08:37:36.354Z,78.80
2022-09-15T08:40:03.341Z,78.77
2022-09-15T08:42:30.033Z,79.26
2022-09-15T08:45:00.335Z,76.34
2022-09-15T08:47:33.826Z,74.89
2022-09-15T08:50:05.418Z,76.86
2022-09-15T08:52:33.397Z,75.68
2022-09-15T08:55:11.652Z,75.76
2022-09-15T08:57:38.270Z,76.78
2022-09-15T09:00:13.271Z,76.86
2022-09-15T09:02:58.088Z,76.49
2022-09-15T09:05:38.547Z,74.98
2022-09-15T09:08:30.555Z,74.42
2022-09-15T09:11:09.003Z,74.69
2022-09-15T09:13:40.484Z,73.72
2022-09-15T09:16:23.804Z,72.78
2022-09-15T09:19:03.080Z,74.23
2022-09-15T09:21:33.054Z,72.77
2022-09-15T09:24:04.930Z,71.79
2022-09-15T09:26:35.127Z,71.59
2022-09-15T09:29:06.144Z,72.23
2022-09-15T09:31:35.708Z,71.38
2022-09-15T09:34:13.765Z,71.76
2022-09-15T09:36:40.363Z,70.09
2022-09-15T09:39:12.968Z,70.60
2022-09-15T09:41:40.849Z,70.25
2022-09-15T09:44:11.147Z,68.30
2022-09-15T09:46:38.353Z,69.03
2022-09-15T09:49:13.953Z,68.64
2022-09-15T09:51:49.707Z,68.16
2022-09-15T09:54:16.251Z,68.13
2022-09-15T09:56:43.647Z,67.90
2022-09-15T09:59:39.056Z,64.09
2022-09-15T10:02:14.162Z,66.02
2022-09-15T10:04:43.368Z,66.71
2022-09-15T10:07:10.851Z,66.11
2022-09-15T10:09:38.511Z,66.46
2022-09-15T10:12:06.450Z,65.23
2022-09-15T10:14:35.648Z,65.37
2022-09-15T10:17:06.315Z,65.25
2022-09-15T10:19:36.493Z,65.46
2022-09-15T10:22:05.028Z,63.20
2022-09-15T10:24:34.450Z,63.18
2022-09-15T10:27:15.889Z,63.39
2022-09-15T10:29:42.669Z,61.92
2022-09-15T10:32:27.232Z,63.22
2022-09-15T10:35:02.578Z,62.13
2022-09-15T10:37:34.166Z,62.65
2022-09-15T10:40:09.206Z,61.90
2022-09-15T10:42:50.538Z,61.47
2022-09-15T10:45:32.746Z,63.36
2022-09-15T10:48:17.354Z,63.49
2022-09-15T10:50:54.673Z,61.22
2022-09-15T10:53:37.115Z,60.50
2022-09-15T10:56:13.438Z,60.59
2022-09-15T10:58:50.664Z,60.16
2022-09-15T11:01:31.337Z,57.94
2022-09-15T11:04:12.328Z,58.04
2022-09-15T11:06:47.723Z,59.05
2022-09-15T11:09:20.978Z,59.38
2022-09-15T11:11:59.553Z,58.85
2022-09-15T11:14:41.662Z,57.83
2022-09-15T11:17:23.626Z,55.91
2022-09-15T11:20:30.354Z,57.56
2022-09-15T11:23:03.679Z,57.47
2022-09-15T11:25:34.572Z,57.33
2022-09-15T11:28:09.160Z,56.50
2022-09-15T11:30:41.660Z,56.54
2022-09-15T11:33:18.557Z,58.15
2022-09-15T11:35:47.911Z,58.32
2022-09-15T11:38:30.581Z,56.75
2022-09-15T11:41:10.271Z,58.11
2022-09-15T11:43:43.870Z,59.47
2022-09-15T11:46:15.052Z,58.83
2022-09-15T11:48:45.319Z,59.50
2022-09-15T11:51:16.080Z,59.36
2022-09-15T11:53:50.038Z,58.80
2022-09-15T11:56:24.397Z,57.74
2022-09-15T11:59:02.473Z,57.34
2022-09-15T12:01:32.319Z,58.15
2022-09-15T12:04:03.094Z,56.71
2022-09-15T12:06:45.811Z,56.23
2022-09-15T12:09:15.878Z,57.13
2022-09-15T12:11:46.308Z,53.84
2022-09-15T12:14:16.397Z,53.72
2022-09-15T12:16:44.138Z,55.28
2022-09-15T12:19:18.291Z,53.67
2022-09-15T12:21:53.792Z,54.95
2022-09-15T12:24:34.258Z,54.00
2022-09-15T12:27:02.535Z,54.09
2022-09-15T12:29:31.490Z,54.86
2022-09-15T12:32:20.192Z,53.76
2022-09-15T12:35:02.143Z,53.58
2022-09-15T12:37:39.822Z,53.06
2022-09-15T12:40:26.696Z,51.94
2022-09-15T12:42:54.833Z,54.19
2022-09-15T12:45:24.633Z,51.87
2022-09-15T12:47:54.993Z,53.62
2022-09-15T12:50:25.539Z,53.67
2022-09-15T12:52:54.430Z,53.32
2022-09-15T12:55:24.270Z,51.61
2022-09-15T12:57:58.441Z,50.97
2022-09-15T13:00:34.366Z,51.00
2022-09-15T13:03:01.970Z,51.12
2022-09-15T13:06:11.398Z,51.51
2022-09-15T13:08:49.204Z,52.44
2022-09-15T13:11:19.721Z,53.12
2022-09-15T13:13:51.599Z,51.23
2022-09-15T13:16:25.902Z,51.71
2022-09-15T13:19:03.619Z,52.94
2022-09-15T13:21:31.681Z,53.62
2022-09-15T13:23:59.149Z,53.56
2022-09-15T13:26:28.275Z,54.00
2022-09-15T13:28:57.808Z,54.62
2022-09-15T13:31:35.930Z,53.62
2022-09-15T13:40:48.434Z,54.75
2022-09-15T13:43:42.163Z,53.97
2022-09-15T13:46:21.513Z,53.93
2022-09-15T13:49:13.086Z,51.69
2022-09-15T13:51:43.496Z,49.61
2022-09-15T13:54:16.539Z,51.00
2022-09-15T13:56:43.822Z,48.05
2022-09-15T13:59:17.355Z,48.84
2022-09-15T14:01:45.806Z,49.12
2022-09-15T14:04:15.881Z,49.15
2022-09-15T14:06:45.159Z,50.04
2022-09-15T14:09:15.676Z,49.64
2022-09-15T14:11:43.732Z,50.49
2022-09-15T14:14:32.062Z,49.44
2022-09-15T14:17:00.127Z,50.62
2022-09-15T14:19:30.758Z,49.58
2022-09-15T14:21:58.658Z,50.23
2022-09-15T14:24:27.841Z,51.09
2022-09-15T14:26:54.637Z,50.60
2022-09-15T14:29:23.474Z,50.99
2022-09-15T14:31:50.230Z,50.94
2022-09-15T14:34:21.258Z,51.18
2022-09-15T14:37:00.421Z,50.76
2022-09-15T14:39:26.974Z,51.38
2022-09-15T14:41:53.574Z,50.76
2022-09-15T14:47:12.394Z,51.65
2022-09-15T14:49:40.270Z,51.19
2022-09-15T14:52:22.805Z,51.58
2022-09-15T14:54:50.411Z,51.54
2022-09-15T14:57:22.806Z,51.84
2022-09-15T14:59:55.197Z,51.57
2022-09-15T15:02:28.977Z,52.90
2022-09-15T15:05:04.814Z,52.76
2022-09-15T15:07:35.805Z,52.96
2022-09-15T15:10:05.930Z,52.86
2022-09-15T15:12:35.905Z,53.64
2022-09-15T15:15:03.181Z,53.99
2022-09-15T15:17:35.593Z,53.69
2022-09-15T15:20:14.195Z,54.38
2022-09-15T15:22:42.165Z,53.86
2022-09-15T15:25:24.575Z,54.67
2022-09-15T15:27:52.374Z,54.84
2022-09-15T15:30:46.025Z,55.21
2022-09-15T15:33:19.854Z,55.90
2022-09-15T15:36:00.925Z,56.95
2022-09-15T15:38:27.661Z,57.45
2022-09-15T15:41:00.422Z,57.62
2022-09-15T15:43:27.213Z,58.08
2022-09-15T15:45:55.284Z,57.96
2022-09-15T15:48:21.872Z,58.74
2022-09-15T15:50:49.715Z,58.30
2022-09-15T15:53:16.538Z,58.41
2022-09-15T15:55:43.831Z,59.13
2022-09-15T15:58:11.331Z,59.51
2022-09-15T16:00:42.348Z,59.39
2022-09-15T16:03:08.937Z,59.80
2022-09-15T16:05:36.124Z,60.01
2022-09-15T16:08:07.129Z,59.91
2022-09-15T16:10:39.889Z,60.31
2022-09-15T16:13:06.707Z,60.43
2022-09-15T16:15:33.234Z,60.38
2022-09-15T16:18:00.170Z,60.50
2022-09-15T16:20:26.718Z,60.78
2022-09-15T16:22:53.315Z,61.06
2022-09-15T16:25:31.136Z,61.50
2022-09-15T16:27:57.692Z,61.78
2022-09-15T16:30:24.179Z,61.63
2022-09-15T16:32:50.701Z,61.48
2022-09-15T16:35:26.377Z,61.51
2022-09-15T16:37:53.149Z,62.46
2022-09-15T16:40:19.704Z,62.24
2022-09-15T16:42:48.402Z,61.47
2022-09-15T16:45:23.295Z,61.58
2022-09-15T16:47:49.844Z,61.75
2022-09-15T16:50:16.566Z,61.99
2022-09-15T16:52:43.373Z,62.08
2022-09-15T16:55:23.045Z,62.65
2022-09-15T16:57:51.177Z,63.16
2022-09-15T17:00:17.855Z,62.69
2022-09-15T17:02:44.539Z,63.26
2022-09-15T17:05:20.436Z,63.23
2022-09-15T17:07:47.089Z,63.31
2022-09-15T17:10:13.775Z,62.96
2022-09-15T17:12:40.534Z,63.08
2022-09-15T17:15:24.188Z,63.13
2022-09-15T17:17:50.965Z,63.40
2022-09-15T17:20:18.031Z,63.38
2022-09-15T17:22:44.918Z,63.39
2022-09-15T17:25:20.001Z,64.23
2022-09-15T17:27:46.579Z,63.47
2022-09-15T17:30:13.814Z,63.25
2022-09-15T17:32:42.264Z,61.97
2022-09-15T17:35:15.656Z,59.29
2022-09-15T17:37:42.532Z,60.78
2022-09-15T17:40:10.263Z,60.89
2022-09-15T17:42:36.941Z,60.83
2022-09-15T17:45:14.070Z,61.02
2022-09-15T17:47:42.049Z,60.46
2022-09-15T17:50:09.580Z,60.63
2022-09-15T17:52:36.172Z,61.06
2022-09-15T17:55:10.147Z,60.98
2022-09-15T17:57:36.651Z,61.29
2022-09-15T18:00:04.588Z,61.38
2022-09-15T18:02:31.984Z,61.99
2022-09-15T18:04:59.966Z,62.29
2022-09-15T18:07:26.602Z,62.57
2022-09-15T18:09:53.134Z,62.81
2022-09-15T18:12:19.990Z,63.08
2022-09-15T18:14:46.466Z,63.15
2022-09-15T18:17:13.040Z,63.61
2022-09-15T18:19:39.546Z,63.79
2022-09-15T18:22:08.931Z,64.67
2022-09-15T18:24:35.426Z,64.57
2022-09-15T18:27:02.013Z,64.80
2022-09-15T18:29:28.496Z,64.62
2022-09-15T18:31:55.036Z,64.71
2022-09-15T18:34:21.551Z,65.07
2022-09-15T18:36:48.147Z,65.71
2022-09-15T18:39:16.018Z,66.00
2022-09-15T18:41:42.646Z,66.32
2022-09-15T18:44:09.183Z,66.31
2022-09-15T18:46:35.834Z,66.88
2022-09-15T18:49:02.383Z,67.16
2022-09-15T18:51:34.884Z,67.63
2022-09-15T18:54:16.947Z,68.19
2022-09-15T18:56:43.507Z,68.01
2022-09-15T18:59:10.410Z,68.19
2022-09-15T19:01:37.127Z,68.76
2022-09-15T19:04:03.810Z,69.27
2022-09-15T19:06:30.282Z,69.13
2022-09-15T19:08:57.188Z,69.25
2022-09-15T19:11:28.813Z,69.26
2022-09-15T19:13:55.715Z,68.42
2022-09-15T19:16:22.956Z,67.96
2022-09-15T19:18:52.793Z,68.21
2022-09-15T19:21:21.089Z,67.76
2022-09-15T19:23:50.565Z,67.22
2022-09-15T19:26:17.128Z,67.02
2022-09-15T19:28:45.792Z,66.74
2022-09-15T19:31:13.017Z,66.52
2022-09-15T19:33:39.875Z,65.72
2022-09-15T19:36:27.445Z,65.59
2022-09-15T19:38:54.473Z,65.48
2022-09-15T19:41:21.264Z,65.27
2022-09-15T19:43:49.447Z,64.64
2022-09-15T19:46:18.979Z,64.92
2022-09-15T19:48:49.349Z,64.88
2022-09-15T19:51:24.674Z,64.97
2022-09-15T19:53:54.680Z,64.75
2022-09-15T19:56:22.937Z,65.06
2022-09-15T19:58:50.989Z,64.90
2022-09-15T20:01:19.884Z,64.69
2022-09-15T20:03:46.437Z,64.61
2022-09-15T20:06:13.151Z,64.44
2022-09-15T20:08:39.663Z,63.99
2022-09-15T20:11:07.528Z,63.63
2022-09-15T20:13:34.805Z,63.38
2022-09-15T20:16:03.277Z,63.79
2022-09-15T20:18:30.210Z,63.91
2022-09-15T20:20:57.158Z,63.54
2022-09-15T20:23:23.795Z,64.15
2022-09-15T20:25:57.683Z,62.39
2022-09-15T20:28:24.851Z,63.36
2022-09-15T20:31:04.538Z,62.20
2022-09-15T20:33:31.743Z,62.69
2022-09-15T20:36:00.613Z,63.00
2022-09-15T20:38:27.555Z,62.96
2022-09-15T20:40:54.487Z,63.32
2022-09-15T20:43:21.163Z,63.43
2022-09-15T20:45:55.368Z,63.33
2022-09-15T20:48:23.599Z,63.44
2022-09-15T20:50:50.137Z,63.07
2022-09-15T20:53:16.718Z,63.03
2022-09-15T20:55:48.724Z,63.52
2022-09-15T20:58:15.483Z,63.53
2022-09-15T21:00:42.051Z,64.12
2022-09-15T21:03:08.634Z,63.68
2022-09-15T21:05:36.484Z,63.58
2022-09-15T21:08:03.095Z,63.31
2022-09-15T21:10:29.604Z,63.10
2022-09-15T21:12:56.166Z,63.56
2022-09-15T21:15:22.708Z,63.65
2022-09-15T21:17:49.271Z,64.27
2022-09-15T21:20:16.051Z,63.75
2022-09-15T21:22:43.981Z,63.93
2022-09-15T21:25:10.476Z,63.57
2022-09-15T21:27:37.302Z,64.13
2022-09-15T21:30:04.961Z,64.22
2022-09-15T21:32:32.187Z,64.69
2022-09-15T21:34:58.726Z,64.69
2022-09-15T21:37:26.067Z,64.75
2022-09-15T21:39:54.051Z,64.69
2022-09-15T21:42:20.681Z,64.68
2022-09-15T21:44:47.177Z,65.13
2022-09-15T21:47:13.747Z,65.06
2022-09-15T21:49:40.241Z,65.21
2022-09-15T21:52:06.805Z,65.91
2022-09-15T21:54:33.318Z,65.64
2022-09-15T21:57:01.273Z,65.74
2022-09-15T21:59:27.943Z,66.09
2022-09-15T22:01:54.530Z,65.85
2022-09-15T22:04:21.302Z,65.69
2022-09-15T22:06:47.886Z,65.79
2022-09-15T22:09:17.023Z,66.06
2022-09-15T22:11:44.067Z,65.58
2022-09-15T22:14:11.970Z,65.82
2022-09-15T22:16:40.135Z,65.83
2022-09-15T22:19:07.793Z,65.93
2022-09-15T22:21:34.851Z,66.76
2022-09-15T22:24:02.439Z,66.38
2022-09-15T22:26:30.908Z,66.23
2022-09-15T22:28:59.305Z,66.46
2022-09-15T22:31:28.193Z,66.52
2022-09-15T22:33:56.513Z,66.46
2022-09-15T22:36:29.325Z,66.61
2022-09-15T22:38:57.834Z,66.56
2022-09-15T22:41:24.506Z,66.63
2022-09-15T22:43:51.292Z,66.75
2022-09-15T22:46:19.146Z,66.72
2022-09-15T22:48:47.367Z,66.83
2022-09-15T22:51:14.386Z,66.76
2022-09-15T22:53:41.395Z,66.95
2022-09-15T22:56:10.743Z,66.79
2022-09-15T22:58:37.631Z,66.64
2022-09-15T23:01:05.284Z,66.77
2022-09-15T23:03:31.941Z,66.91
2022-09-15T23:06:00.791Z,67.04
2022-09-15T23:08:27.429Z,67.16
2022-09-15T23:11:00.928Z,67.25
2022-09-15T23:13:27.477Z,67.03
2022-09-15T23:15:53.999Z,67.40
2022-09-15T23:18:20.673Z,67.36
2022-09-15T23:20:47.182Z,67.77
2022-09-15T23:23:15.137Z,68.17
2022-09-15T23:25:41.638Z,68.04
2022-09-15T23:28:08.166Z,68.26
2022-09-15T23:30:34.650Z,68.33
2022-09-15T23:33:01.233Z,68.21
2022-09-15T23:35:27.697Z,68.54
2022-09-15T23:37:54.219Z,68.78
2022-09-15T23:40:22.109Z,69.17
2022-09-15T23:42:48.755Z,69.48
2022-09-15T23:45:15.387Z,70.27
2022-09-15T23:47:41.933Z,70.45
2022-09-15T23:50:09.359Z,70.56
2022-09-15T23:52:35.979Z,70.82
2022-09-15T23:55:02.501Z,71.06
2022-09-15T23:57:30.492Z,71.73
2022-09-15T23:59:56.977Z,72.44
